Penguin Arrow — C6PA6 — position and weather

sailwx.info

Track history (hours):
 
Tides and Currents Weather Stations Pressure Air Temp Water Temp Dewpoint Dewpoint Depression Visibility Wind Speed Wind Dir Waves Ship Positions

Penguin Arrow

Last reported at 2017-Apr-03 13:40 UTC. Time now 2017-Apr-25 20:26 UTC.
Position N 31°16' E 121°54'.
Warning: this ship's position is 22 days out of date.

Length 200 m; draft 8.7 m.

Type: Cargo ship. MMSI: 309927000.

Date/timePositionNaut miles runAvg speedWind from/ knotsBaromVisibWave heightAir tempDewpointWater temp
2017-Apr-03 13:40N 31°16' E 121°54'211.5
2017-Apr-03 13:30N 31°16' E 121°52'2810.9
2017-Apr-03 10:56N 31°31' E 121°24'10 0.2
2017-Apr-01 08:23N 31°38' E 121°16'410.4
2017-Apr-01 08:00N 31°34' E 121°19'510.4
2017-Apr-01 07:29N 31°31' E 121°23'1710.9
2017-Apr-01 05:57N 31°21' E 121°39'510.1
2017-Apr-01 05:29N 31°19' E 121°44'510.5
2017-Apr-01 05:00N 31°17' E 121°50'510.4
2017-Apr-01 04:30N 31°16' E 121°55'510.7
2017-Apr-01 03:59N 31°14' E 122°02'  
2017-Mar-25 12:00N 24°48' E 130°36'   1016.3 5.4 20.016.1
Track history (hours):
 
Tides and Currents Weather Stations Pressure Air Temp Water Temp Dewpoint Dewpoint Depression Visibility Wind Speed Wind Dir Waves Ship Positions

Penguin Arrow

Last reported at 2017-Apr-03 13:40 UTC. Time now 2017-Apr-25 20:26 UTC.
Position N 31°16' E 121°54'.
Warning: this ship's position is 22 days out of date.

Length 200 m; draft 8.7 m.

Type: Cargo ship. MMSI: 309927000.

Date/timePositionNaut miles runAvg speedWind from/ knotsBaromVisibWave heightAir tempDewpointWater temp
2017-Apr-03 13:40N 31°16' E 121°54'211.5
2017-Apr-03 13:30N 31°16' E 121°52'2810.9
2017-Apr-03 10:56N 31°31' E 121°24'10 0.2
2017-Apr-01 08:23N 31°38' E 121°16'410.4
2017-Apr-01 08:00N 31°34' E 121°19'510.4
2017-Apr-01 07:29N 31°31' E 121°23'1710.9
2017-Apr-01 05:57N 31°21' E 121°39'510.1
2017-Apr-01 05:29N 31°19' E 121°44'510.5
2017-Apr-01 05:00N 31°17' E 121°50'510.4
2017-Apr-01 04:30N 31°16' E 121°55'510.7
2017-Apr-01 03:59N 31°14' E 122°02'  
2017-Mar-25 12:00N 24°48' E 130°36'   1016.3 5.4 20.016.1

Dump ship's entire track history